Decoded Metar for EHWO (WOENSDRECHT in NETHERLANDS) (IATA:WOE) | Meteo·Mobile Aviation Weather
aviador You're here:

EHWO Decoded Metar

WOENSDRECHT in NETHERLANDS
Report Time2018-09-19 14:25:00
UTC Time2018-09-19 14:40:33
Flight Rules vfr VFR
Wind220° at 12 kt
W.Decomp.*RWY 25: 10.5 kt HW 5.8 kt LCW
W.Rank220° ranks 1
Current wind is above 220° avg. (7.9)
Visibility9999 m
Phenomena:N/A
Clouds:Broken 044 Hf
Broken 049 Hf
Expected CloudBase > 4,000 ft AGL from Temp-Dew spread
Ceiling4,400 ft
Temp23°C (ISA +8)
Dew Point13°C (53% RH)
AAT19.6°C
QNH1016 hPa
Density Alt1,099 ft
Elevation56 ft
Report Wrong Elevation
Raw Report
METAR EHWO 191425Z AUTO 22012KT 180V260 9999 BKN044 BKN049 23/13 Q1016
BLU=

Extra information for EHWO:More info

Metar Taf Metar & Taf Last 4 Metars F.Rules Stats Wind Profile Meteogram Temp Stats Airport Information Weather charts Add Link Nearby VenuesMetar ALERT Operation Metar Decoded Social comments